createdAt,value
2022-12-19T00:02:57.248Z,90.53
2022-12-19T00:07:01.815Z,90.79
2022-12-19T00:11:04.829Z,90.97
2022-12-19T00:15:09.489Z,90.82
2022-12-19T00:19:12.666Z,90.28
2022-12-19T00:23:16.721Z,90.99
2022-12-19T00:27:19.376Z,90.68
2022-12-19T00:31:23.902Z,90.85
2022-12-19T00:35:26.575Z,90.24
2022-12-19T00:39:30.568Z,89.99
2022-12-19T00:43:33.191Z,90.43
2022-12-19T00:47:36.361Z,90.45
2022-12-19T00:51:39.068Z,90.02
2022-12-19T00:55:43.061Z,90.65
2022-12-19T00:59:45.668Z,90.33
2022-12-19T01:04:26.001Z,90.38
2022-12-19T01:08:11.480Z,90.79
2022-12-19T01:12:32.780Z,90.21
2022-12-19T01:16:35.509Z,90.57
2022-12-19T01:20:39.873Z,90.61
2022-12-19T01:24:42.520Z,90.85
2022-12-19T01:28:46.656Z,90.81
2022-12-19T01:32:49.321Z,90.04
2022-12-19T01:36:51.999Z,90.46
2022-12-19T01:40:56.792Z,90.86
2022-12-19T01:45:27.771Z,90.11
2022-12-19T01:49:37.672Z,90.39
2022-12-19T01:53:48.520Z,89.98
2022-12-19T01:57:52.502Z,90.85
2022-12-19T02:02:01.280Z,90.81
2022-12-19T02:06:06.514Z,90.40
2022-12-19T02:10:09.770Z,90.58
2022-12-19T02:14:12.472Z,91.05
2022-12-19T02:18:22.954Z,91.02
2022-12-19T02:22:31.617Z,91.09
2022-12-19T02:26:58.211Z,90.88
2022-12-19T02:31:15.478Z,91.02
2022-12-19T02:35:28.871Z,90.86
2022-12-19T02:39:35.508Z,90.90
2022-12-19T02:43:42.627Z,90.88
2022-12-19T02:47:47.721Z,90.77
2022-12-19T02:51:50.402Z,91.02
2022-12-19T02:56:23.073Z,90.83
2022-12-19T03:00:28.718Z,90.51
2022-12-19T03:04:44.641Z,90.79
2022-12-19T03:08:53.667Z,90.22
2022-12-19T03:13:02.093Z,90.44
2022-12-19T03:17:07.329Z,91.01
2022-12-19T03:21:18.897Z,90.47
2022-12-19T03:25:23.388Z,90.95
2022-12-19T03:29:31.187Z,90.57
2022-12-19T03:33:34.989Z,90.36
2022-12-19T03:37:42.859Z,90.46
2022-12-19T03:42:03.867Z,90.07
2022-12-19T03:46:14.074Z,90.92
2022-12-19T03:50:17.131Z,90.18
2022-12-19T03:54:26.282Z,90.64
2022-12-19T03:58:33.927Z,90.15
2022-12-19T04:02:38.765Z,90.79
2022-12-19T04:06:43.717Z,90.16
2022-12-19T04:10:52.465Z,90.88
2022-12-19T04:14:55.196Z,90.85
2022-12-19T04:19:02.013Z,90.07
2022-12-19T04:23:10.127Z,89.98
2022-12-19T04:27:15.344Z,90.30
2022-12-19T04:31:19.146Z,90.60
2022-12-19T04:35:21.889Z,90.50
2022-12-19T04:39:24.620Z,90.11
2022-12-19T04:43:28.897Z,90.23
2022-12-19T04:47:31.663Z,90.12
2022-12-19T04:51:34.339Z,89.92
2022-12-19T04:55:37.095Z,90.14
2022-12-19T04:59:41.142Z,90.27
2022-12-19T05:03:43.853Z,90.96
2022-12-19T05:07:47.003Z,90.96
2022-12-19T05:11:49.948Z,90.50
2022-12-19T05:15:58.440Z,90.40
2022-12-19T05:20:01.138Z,90.52
2022-12-19T05:24:03.989Z,90.10
2022-12-19T05:28:06.678Z,89.96
2022-12-19T05:32:10.726Z,90.67
2022-12-19T05:36:15.158Z,90.24
2022-12-19T05:40:17.905Z,90.62
2022-12-19T05:44:20.579Z,90.36
2022-12-19T05:48:24.724Z,91.36
2022-12-19T05:52:27.504Z,90.22
2022-12-19T05:56:30.361Z,89.94
2022-12-19T06:00:33.269Z,90.19
2022-12-19T06:04:40.381Z,90.59
2022-12-19T06:08:43.345Z,89.81
2022-12-19T06:12:46.101Z,89.62
2022-12-19T06:16:48.849Z,90.05
2022-12-19T06:21:01.174Z,89.66
2022-12-19T06:25:03.887Z,90.33
2022-12-19T06:29:06.606Z,89.71
2022-12-19T06:33:10.066Z,89.61
2022-12-19T06:37:14.192Z,89.30
2022-12-19T06:41:35.198Z,89.51
2022-12-19T06:45:37.981Z,90.26
2022-12-19T06:49:40.690Z,90.17
2022-12-19T06:53:44.715Z,93.39
2022-12-19T06:57:47.588Z,94.89
2022-12-19T07:01:58.061Z,93.56
2022-12-19T07:06:00.952Z,92.52
2022-12-19T07:10:06.329Z,90.60
2022-12-19T07:14:09.023Z,90.23
2022-12-19T07:18:14.009Z,90.16
2022-12-19T07:22:16.962Z,89.80
2022-12-19T07:26:21.000Z,89.90
2022-12-19T07:30:23.716Z,89.88
2022-12-19T07:34:26.429Z,89.23
2022-12-19T07:38:29.181Z,89.62
2022-12-19T07:42:34.090Z,89.29
2022-12-19T07:46:36.804Z,90.25
2022-12-19T07:50:39.479Z,89.35
2022-12-19T07:54:42.165Z,89.07
2022-12-19T07:58:46.199Z,88.86
2022-12-19T08:02:49.374Z,89.13
2022-12-19T08:06:53.183Z,89.42
2022-12-19T08:10:55.937Z,89.56
2022-12-19T08:15:00.016Z,89.51
2022-12-19T08:19:03.196Z,90.26
2022-12-19T08:23:05.866Z,89.17
2022-12-19T08:27:08.574Z,89.53
2022-12-19T08:31:17.186Z,89.30
2022-12-19T08:35:20.175Z,89.34
2022-12-19T08:39:22.931Z,88.43
2022-12-19T08:43:25.638Z,89.25
2022-12-19T08:47:29.939Z,89.42
2022-12-19T08:51:32.591Z,89.01
2022-12-19T08:55:36.730Z,89.38
2022-12-19T08:59:39.437Z,88.67
2022-12-19T09:03:47.941Z,88.87
2022-12-19T09:08:07.918Z,89.73
2022-12-19T09:12:11.160Z,88.57
2022-12-19T09:16:16.451Z,89.48
2022-12-19T09:20:23.669Z,88.76
2022-12-19T09:24:28.315Z,88.96
2022-12-19T09:28:31.615Z,88.92
2022-12-19T09:32:34.335Z,88.92
2022-12-19T09:36:38.341Z,89.15
2022-12-19T09:40:57.602Z,88.71
2022-12-19T09:45:31.585Z,89.41
2022-12-19T09:49:39.895Z,88.80
2022-12-19T09:54:00.614Z,88.51
2022-12-19T09:58:09.079Z,88.43
2022-12-19T10:02:30.150Z,88.20
2022-12-19T10:07:18.377Z,87.79
2022-12-19T10:12:39.793Z,87.63
2022-12-19T10:15:43.149Z,88.38
2022-12-19T10:20:00.791Z,87.27
2022-12-19T10:24:21.826Z,87.46
2022-12-19T10:28:41.899Z,87.59
2022-12-19T10:32:57.175Z,87.18
2022-12-19T10:37:23.232Z,87.08
2022-12-19T10:41:28.481Z,86.80
2022-12-19T10:45:41.078Z,87.00
2022-12-19T10:49:45.148Z,85.93
2022-12-19T10:53:55.081Z,86.47
2022-12-19T10:57:59.749Z,85.95
2022-12-19T11:02:27.774Z,86.03
2022-12-19T11:06:47.327Z,86.39
2022-12-19T11:12:12.961Z,85.97
2022-12-19T11:20:10.167Z,86.06
2022-12-19T11:29:27.285Z,85.79
2022-12-19T11:29:42.128Z,85.83
2022-12-19T11:30:48.174Z,85.34
2022-12-19T11:33:09.922Z,85.12
2022-12-19T11:37:21.476Z,85.23
2022-12-19T11:41:33.059Z,85.19
2022-12-19T11:45:42.023Z,85.28
2022-12-19T11:49:49.880Z,84.57
2022-12-19T11:54:04.031Z,84.75
2022-12-19T11:58:06.667Z,83.75
2022-12-19T12:02:43.767Z,83.49
2022-12-19T12:06:51.200Z,83.65
2022-12-19T12:17:10.044Z,83.68
2022-12-19T12:28:47.915Z,83.62
2022-12-19T12:31:07.301Z,84.04
2022-12-19T12:31:47.318Z,84.80
2022-12-19T12:32:06.163Z,85.55
2022-12-19T12:35:22.332Z,84.86
2022-12-19T12:38:52.498Z,85.14
2022-12-19T12:43:04.761Z,85.67
2022-12-19T12:47:18.215Z,85.75
2022-12-19T12:51:22.465Z,85.51
2022-12-19T12:55:28.608Z,85.51
2022-12-19T12:59:32.197Z,84.93
2022-12-19T13:03:36.525Z,85.08
2022-12-19T13:07:44.481Z,85.10
2022-12-19T13:12:21.005Z,85.12
2022-12-19T13:16:53.395Z,84.64
2022-12-19T13:20:57.785Z,84.62
2022-12-19T13:25:01.926Z,85.23
2022-12-19T13:29:26.016Z,85.41
2022-12-19T13:33:46.282Z,85.80
2022-12-19T13:39:56.273Z,86.31
2022-12-19T13:42:34.163Z,86.47
2022-12-19T13:46:41.521Z,86.02
2022-12-19T13:50:47.739Z,85.99
2022-12-19T13:54:58.114Z,85.78
2022-12-19T13:59:03.686Z,86.02
2022-12-19T14:03:16.741Z,85.73
2022-12-19T14:07:36.974Z,85.80
2022-12-19T14:13:36.905Z,86.00
2022-12-19T14:16:07.997Z,86.14
2022-12-19T14:22:02.675Z,86.02
2022-12-19T14:24:54.211Z,86.07
2022-12-19T14:29:02.303Z,85.84
2022-12-19T14:33:47.019Z,86.26
2022-12-19T14:38:12.705Z,86.65
2022-12-19T14:43:55.785Z,86.72
2022-12-19T14:52:36.193Z,86.78
2022-12-19T14:54:26.482Z,86.59
2022-12-19T14:56:19.742Z,87.06
2022-12-19T15:01:07.069Z,86.76
2022-12-19T15:05:03.980Z,87.17
2022-12-19T15:11:00.030Z,87.43
2022-12-19T15:14:51.745Z,87.62
2022-12-19T15:17:56.568Z,88.32
2022-12-19T15:22:00.605Z,88.25
2022-12-19T15:26:06.850Z,88.27
2022-12-19T15:30:16.320Z,88.27
2022-12-19T15:34:46.616Z,88.07
2022-12-19T15:38:47.637Z,88.74
2022-12-19T15:42:57.100Z,88.50
2022-12-19T15:46:59.940Z,88.88
2022-12-19T15:51:02.649Z,89.54
2022-12-19T15:55:08.935Z,89.46
2022-12-19T15:59:24.228Z,90.42
2022-12-19T16:03:27.328Z,90.12
2022-12-19T16:07:30.408Z,92.07
2022-12-19T16:11:34.571Z,92.27
2022-12-19T16:15:39.513Z,90.88
2022-12-19T16:19:42.335Z,88.84
2022-12-19T16:23:45.006Z,88.09
2022-12-19T16:27:54.170Z,88.20
2022-12-19T16:31:57.097Z,88.21
2022-12-19T16:36:05.114Z,88.53
2022-12-19T16:40:11.704Z,88.42
2022-12-19T16:44:19.894Z,88.66
2022-12-19T16:48:24.847Z,88.51
2022-12-19T16:52:27.537Z,88.45
2022-12-19T16:56:33.757Z,88.63
2022-12-19T17:00:40.159Z,89.06
2022-12-19T17:04:45.400Z,88.79
2022-12-19T17:08:51.665Z,88.55
2022-12-19T17:12:55.376Z,88.67
2022-12-19T17:17:00.368Z,88.37
2022-12-19T17:21:03.272Z,88.69
2022-12-19T17:25:17.513Z,88.97
2022-12-19T17:29:20.318Z,89.03
2022-12-19T17:33:29.723Z,88.49
2022-12-19T17:37:32.559Z,88.61
2022-12-19T17:41:35.295Z,88.42
2022-12-19T17:45:38.199Z,88.62
2022-12-19T17:49:42.431Z,88.56
2022-12-19T17:53:45.603Z,88.95
2022-12-19T17:57:48.335Z,88.84
2022-12-19T18:01:51.198Z,88.87
2022-12-19T18:05:57.166Z,89.15
2022-12-19T18:10:00.085Z,88.69
2022-12-19T18:14:02.819Z,89.11
2022-12-19T18:18:05.831Z,89.22
2022-12-19T18:22:13.203Z,89.18
2022-12-19T18:26:16.558Z,89.32
2022-12-19T18:30:21.081Z,88.49
2022-12-19T18:34:26.265Z,88.75
2022-12-19T18:38:30.388Z,88.55
2022-12-19T18:42:33.076Z,88.17
2022-12-19T18:46:35.906Z,87.86
2022-12-19T18:50:38.767Z,88.26
2022-12-19T18:54:55.172Z,87.99
2022-12-19T18:59:05.852Z,87.79
2022-12-19T19:03:20.996Z,87.98
2022-12-19T19:07:27.726Z,88.41
2022-12-19T19:11:31.877Z,88.07
2022-12-19T19:15:47.196Z,88.25
2022-12-19T19:19:50.108Z,87.88
2022-12-19T19:24:05.019Z,88.07
2022-12-19T19:28:09.717Z,87.96
2022-12-19T19:32:26.506Z,87.72
2022-12-19T19:36:32.039Z,87.49
2022-12-19T19:40:34.967Z,87.99
2022-12-19T19:44:43.252Z,88.11
2022-12-19T19:48:47.342Z,87.63
2022-12-19T19:52:49.984Z,87.83
2022-12-19T19:56:52.666Z,88.13
2022-12-19T20:01:04.301Z,88.25
2022-12-19T20:05:07.848Z,88.09
2022-12-19T20:09:10.670Z,88.10
2022-12-19T20:13:13.531Z,87.51
2022-12-19T20:17:23.997Z,88.12
2022-12-19T20:21:26.748Z,87.79
2022-12-19T20:25:29.427Z,87.93
2022-12-19T20:29:32.172Z,87.52
2022-12-19T20:33:42.404Z,87.34
2022-12-19T20:37:45.105Z,87.35
2022-12-19T20:41:47.810Z,87.41
2022-12-19T20:45:50.596Z,87.39
2022-12-19T20:49:54.893Z,87.39
2022-12-19T20:54:02.916Z,87.17
2022-12-19T20:58:07.525Z,86.99
2022-12-19T21:02:10.932Z,86.53
2022-12-19T21:06:16.460Z,87.00
2022-12-19T21:10:19.287Z,87.55
2022-12-19T21:14:21.963Z,86.99
2022-12-19T21:18:25.601Z,87.27
2022-12-19T21:22:29.780Z,87.38
2022-12-19T21:26:32.503Z,87.31
2022-12-19T21:30:35.185Z,87.88
2022-12-19T21:34:37.904Z,87.99
2022-12-19T21:38:41.918Z,87.45
2022-12-19T21:42:44.594Z,87.51
2022-12-19T21:46:47.273Z,87.38
2022-12-19T21:50:56.358Z,87.44
2022-12-19T21:55:00.409Z,87.91
2022-12-19T21:59:06.554Z,87.40
2022-12-19T22:03:14.474Z,88.07
2022-12-19T22:07:17.918Z,87.53
2022-12-19T22:11:22.495Z,87.85
2022-12-19T22:15:25.155Z,88.38
2022-12-19T22:19:27.883Z,88.16
2022-12-19T22:23:30.772Z,88.24
2022-12-19T22:27:34.813Z,87.68
2022-12-19T22:31:38.541Z,87.59
2022-12-19T22:35:41.426Z,87.31
2022-12-19T22:39:44.084Z,87.49
2022-12-19T22:43:48.739Z,87.74
2022-12-19T22:47:51.398Z,88.12
2022-12-19T22:51:54.062Z,87.74
2022-12-19T22:55:56.938Z,88.45
2022-12-19T23:00:00.951Z,87.97
2022-12-19T23:04:04.790Z,87.91
2022-12-19T23:08:07.693Z,87.99
2022-12-19T23:12:10.380Z,87.36
2022-12-19T23:16:14.540Z,87.58
2022-12-19T23:20:17.349Z,87.63
2022-12-19T23:24:20.604Z,87.94
2022-12-19T23:28:23.595Z,88.38
2022-12-19T23:32:27.705Z,88.19
2022-12-19T23:37:10.143Z,88.21
2022-12-19T23:40:53.290Z,87.90
2022-12-19T23:44:55.991Z,87.90
2022-12-19T23:48:59.977Z,87.75
2022-12-19T23:53:02.624Z,87.66
2022-12-19T23:57:05.306Z,87.94
